Strummer — WDF6693 — position and weather

sailwx.info

Track history (hours):
 
Tides and Currents Weather Stations Pressure Air Temp Water Temp Dewpoint Dewpoint Depression Visibility Wind Speed Wind Dir Waves Ship Positions

Strummer

Owner: meyer, louis, cheshire, CT. More information available from US FCC via Universal Licensing System and Coast Guard Vessel Documentation Center.

Last reported at 2015-Aug-22 11:33 UTC. Time now 2015-Sep-03 10:56 UTC.
Position N 41°20' W 071°55'.
Warning: this ship's position is 11 days out of date.

Length 11 m.

Type: Sailing vessel. MMSI: 367476890.

Date/timePositionNaut miles runAvg speedWind from/ knotsBaromVisibWave heightAir tempDewpointWater temp
2015-Aug-22 11:33N 41°20' W 071°55'0 0.0
2015-Aug-22 10:33N 41°20' W 071°55'0 0.0
2015-Aug-22 09:33N 41°20' W 071°55'0 0.0
2015-Aug-22 08:33N 41°20' W 071°55'0 0.0
2015-Aug-22 07:33N 41°20' W 071°55'0 0.0
2015-Aug-22 06:33N 41°20' W 071°55'0 0.0
2015-Aug-22 05:33N 41°20' W 071°55'0 0.0
2015-Aug-22 04:33N 41°20' W 071°55'0 0.0
2015-Aug-22 03:33N 41°20' W 071°55'0 0.0
2015-Aug-22 02:33N 41°20' W 071°55'  
2015-Aug-17 13:13N 41°20' W 071°55'1 1.3
2015-Aug-17 12:33N 41°19' W 071°55'3 2.5
2015-Aug-17 11:32N 41°20' W 071°59'0 0.0
2015-Aug-17 10:32N 41°20' W 071°59'0 0.0
2015-Aug-17 09:32N 41°20' W 071°59'0 0.0
2015-Aug-17 08:32N 41°20' W 071°59'0 0.0
2015-Aug-17 07:32N 41°20' W 071°59'0 0.0
2015-Aug-17 06:32N 41°20' W 071°59'0 0.0
2015-Aug-17 05:32N 41°20' W 071°59'0 0.0
2015-Aug-17 04:32N 41°20' W 071°59'0 0.0
2015-Aug-17 03:32N 41°20' W 071°59'0 0.0
2015-Aug-17 02:32N 41°20' W 071°59'0 0.0
2015-Aug-17 01:32N 41°20' W 071°59'0 0.0
2015-Aug-17 00:32N 41°20' W 071°59'0 0.0
2015-Aug-16 23:33N 41°20' W 071°59'0 0.3
2015-Aug-16 22:34N 41°20' W 071°59'3 2.5
2015-Aug-16 21:33N 41°19' W 071°56'1 0.0
2015-Aug-15 23:23N 41°20' W 071°55'1 0.7
2015-Aug-15 22:33N 41°19' W 071°55'1 0.0
2015-Aug-14 20:13N 41°20' W 071°55'1 0.9
2015-Aug-14 19:33N 41°19' W 071°55'1 0.8
2015-Aug-14 18:33N 41°19' W 071°55'1 0.9
2015-Aug-14 17:33N 41°20' W 071°55'  
Track history (hours):
 
Tides and Currents Weather Stations Pressure Air Temp Water Temp Dewpoint Dewpoint Depression Visibility Wind Speed Wind Dir Waves Ship Positions

Strummer

Owner: meyer, louis, cheshire, CT. More information available from US FCC via Universal Licensing System and Coast Guard Vessel Documentation Center.

Last reported at 2015-Aug-22 11:33 UTC. Time now 2015-Sep-03 10:56 UTC.
Position N 41°20' W 071°55'.
Warning: this ship's position is 11 days out of date.

Length 11 m.

Type: Sailing vessel. MMSI: 367476890.

Date/timePositionNaut miles runAvg speedWind from/ knotsBaromVisibWave heightAir tempDewpointWater temp
2015-Aug-22 11:33N 41°20' W 071°55'0 0.0
2015-Aug-22 10:33N 41°20' W 071°55'0 0.0
2015-Aug-22 09:33N 41°20' W 071°55'0 0.0
2015-Aug-22 08:33N 41°20' W 071°55'0 0.0
2015-Aug-22 07:33N 41°20' W 071°55'0 0.0
2015-Aug-22 06:33N 41°20' W 071°55'0 0.0
2015-Aug-22 05:33N 41°20' W 071°55'0 0.0
2015-Aug-22 04:33N 41°20' W 071°55'0 0.0
2015-Aug-22 03:33N 41°20' W 071°55'0 0.0
2015-Aug-22 02:33N 41°20' W 071°55'  
2015-Aug-17 13:13N 41°20' W 071°55'1 1.3
2015-Aug-17 12:33N 41°19' W 071°55'3 2.5
2015-Aug-17 11:32N 41°20' W 071°59'0 0.0
2015-Aug-17 10:32N 41°20' W 071°59'0 0.0
2015-Aug-17 09:32N 41°20' W 071°59'0 0.0
2015-Aug-17 08:32N 41°20' W 071°59'0 0.0
2015-Aug-17 07:32N 41°20' W 071°59'0 0.0
2015-Aug-17 06:32N 41°20' W 071°59'0 0.0
2015-Aug-17 05:32N 41°20' W 071°59'0 0.0
2015-Aug-17 04:32N 41°20' W 071°59'0 0.0
2015-Aug-17 03:32N 41°20' W 071°59'0 0.0
2015-Aug-17 02:32N 41°20' W 071°59'0 0.0
2015-Aug-17 01:32N 41°20' W 071°59'0 0.0
2015-Aug-17 00:32N 41°20' W 071°59'0 0.0
2015-Aug-16 23:33N 41°20' W 071°59'0 0.3
2015-Aug-16 22:34N 41°20' W 071°59'3 2.5
2015-Aug-16 21:33N 41°19' W 071°56'1 0.0
2015-Aug-15 23:23N 41°20' W 071°55'1 0.7
2015-Aug-15 22:33N 41°19' W 071°55'1 0.0
2015-Aug-14 20:13N 41°20' W 071°55'1 0.9
2015-Aug-14 19:33N 41°19' W 071°55'1 0.8
2015-Aug-14 18:33N 41°19' W 071°55'1 0.9
2015-Aug-14 17:33N 41°20' W 071°55'  

Dump ship's entire track history